createdAt,value
2023-02-23T00:02:08.569Z,70.25
2023-02-23T00:04:36.775Z,71.35
2023-02-23T00:07:06.384Z,71.18
2023-02-23T00:09:36.457Z,70.43
2023-02-23T00:12:09.745Z,69.57
2023-02-23T00:14:38.289Z,68.32
2023-02-23T00:17:14.150Z,70.38
2023-02-23T00:19:43.515Z,69.53
2023-02-23T00:22:11.965Z,69.82
2023-02-23T00:24:40.620Z,69.07
2023-02-23T00:27:07.924Z,69.13
2023-02-23T00:29:39.633Z,70.45
2023-02-23T00:32:07.451Z,67.07
2023-02-23T00:34:36.668Z,68.97
2023-02-23T00:37:04.377Z,70.40
2023-02-23T00:39:31.690Z,70.57
2023-02-23T00:42:02.840Z,67.25
2023-02-23T00:44:32.414Z,68.25
2023-02-23T00:47:03.153Z,68.63
2023-02-23T00:49:30.411Z,69.05
2023-02-23T00:51:57.665Z,72.00
2023-02-23T00:54:25.446Z,73.30
2023-02-23T00:56:52.772Z,70.30
2023-02-23T00:59:20.633Z,69.47
2023-02-23T01:01:48.210Z,68.88
2023-02-23T01:04:16.687Z,69.20
2023-02-23T01:06:43.961Z,69.18
2023-02-23T01:09:14.606Z,70.22
2023-02-23T01:11:42.354Z,68.30
2023-02-23T01:14:10.882Z,69.60
2023-02-23T01:16:39.056Z,68.75
2023-02-23T01:19:07.045Z,70.30
2023-02-23T01:21:37.434Z,69.47
2023-02-23T01:24:05.951Z,70.93
2023-02-23T01:26:38.929Z,67.65
2023-02-23T01:29:13.935Z,67.07
2023-02-23T01:31:44.095Z,70.93
2023-02-23T01:34:13.572Z,68.55
2023-02-23T01:36:43.670Z,68.75
2023-02-23T01:39:17.609Z,70.43
2023-02-23T01:41:45.340Z,71.43
2023-02-23T01:44:12.590Z,70.60
2023-02-23T01:46:45.229Z,68.30
2023-02-23T01:49:25.687Z,71.40
2023-02-23T01:52:11.371Z,71.32
2023-02-23T01:54:58.914Z,68.97
2023-02-23T01:57:27.872Z,68.78
2023-02-23T01:59:55.770Z,70.07
2023-02-23T02:02:33.772Z,70.60
2023-02-23T02:05:05.346Z,69.53
2023-02-23T02:07:35.172Z,72.97
2023-02-23T02:10:12.211Z,69.90
2023-02-23T02:12:53.772Z,68.75
2023-02-23T02:15:26.025Z,67.07
2023-02-23T02:18:30.738Z,69.82
2023-02-23T02:21:04.680Z,69.22
2023-02-23T02:23:51.757Z,68.90
2023-02-23T02:26:31.510Z,66.95
2023-02-23T02:29:26.285Z,65.53
2023-02-23T02:32:29.298Z,67.75
2023-02-23T02:35:08.693Z,68.53
2023-02-23T02:37:45.052Z,68.38
2023-02-23T02:40:53.421Z,69.53
2023-02-23T02:43:50.973Z,72.13
2023-02-23T02:46:27.402Z,68.85
2023-02-23T02:49:03.326Z,68.80
2023-02-23T02:51:39.657Z,69.55
2023-02-23T02:54:28.934Z,73.40
2023-02-23T02:57:00.416Z,69.25
2023-02-23T02:59:46.659Z,73.85
2023-02-23T03:02:37.033Z,72.63
2023-02-23T03:05:33.904Z,72.07
2023-02-23T03:08:27.158Z,74.13
2023-02-23T03:11:39.261Z,72.07
2023-02-23T03:14:56.462Z,73.47
2023-02-23T03:18:05.401Z,74.82
2023-02-23T03:20:51.239Z,74.15
2023-02-23T03:23:46.087Z,75.68
2023-02-23T03:26:47.339Z,75.57
2023-02-23T03:30:10.936Z,75.22
2023-02-23T03:33:11.099Z,75.70
2023-02-23T03:36:10.310Z,76.57
2023-02-23T03:39:34.829Z,72.03
2023-02-23T03:42:25.773Z,75.43
2023-02-23T03:45:14.201Z,75.03
2023-02-23T03:48:02.188Z,74.53
2023-02-23T03:50:56.207Z,73.70
2023-02-23T03:53:49.601Z,74.20
2023-02-23T03:56:39.576Z,72.90
2023-02-23T03:59:27.786Z,72.57
2023-02-23T04:02:15.375Z,72.97
2023-02-23T04:05:04.895Z,72.35
2023-02-23T04:07:53.085Z,73.00
2023-02-23T04:10:41.319Z,72.38
2023-02-23T04:13:14.588Z,72.93
2023-02-23T04:15:55.659Z,71.78
2023-02-23T04:18:26.248Z,72.47
2023-02-23T04:20:54.686Z,73.20
2023-02-23T04:23:23.276Z,72.50
2023-02-23T04:25:52.201Z,74.88
2023-02-23T04:28:21.112Z,75.10
2023-02-23T04:30:48.461Z,72.38
2023-02-23T04:33:15.960Z,73.65
2023-02-23T04:35:43.206Z,72.28
2023-02-23T04:38:10.706Z,73.95
2023-02-23T04:40:37.973Z,72.32
2023-02-23T04:43:05.275Z,72.13
2023-02-23T04:45:32.546Z,75.53
2023-02-23T04:47:59.834Z,72.25
2023-02-23T04:50:28.206Z,76.43
2023-02-23T04:52:55.429Z,73.50
2023-02-23T04:55:24.778Z,75.20
2023-02-23T04:57:56.680Z,74.35
2023-02-23T05:00:26.996Z,76.38
2023-02-23T05:02:54.255Z,77.55
2023-02-23T05:05:21.580Z,74.65
2023-02-23T05:07:48.844Z,72.80
2023-02-23T05:10:16.150Z,73.03
2023-02-23T05:12:43.492Z,75.15
2023-02-23T05:15:11.116Z,71.93
2023-02-23T05:17:41.945Z,71.45
2023-02-23T05:20:11.210Z,73.72
2023-02-23T05:22:41.663Z,75.22
2023-02-23T05:25:10.144Z,75.32
2023-02-23T05:27:38.401Z,76.82
2023-02-23T05:30:10.576Z,75.40
2023-02-23T05:32:40.499Z,75.28
2023-02-23T05:35:09.000Z,75.43
2023-02-23T05:37:36.740Z,73.22
2023-02-23T05:40:07.339Z,74.05
2023-02-23T05:42:34.712Z,75.25
2023-02-23T05:45:01.981Z,74.93
2023-02-23T05:47:32.108Z,76.47
2023-02-23T05:49:59.576Z,79.25
2023-02-23T05:52:27.108Z,74.35
2023-02-23T05:54:55.152Z,78.78
2023-02-23T05:57:22.466Z,76.63
2023-02-23T05:59:49.792Z,74.53
2023-02-23T06:02:17.233Z,74.60
2023-02-23T06:04:44.879Z,73.75
2023-02-23T06:07:12.713Z,73.55
2023-02-23T06:09:42.377Z,75.22
2023-02-23T06:12:10.803Z,74.95
2023-02-23T06:14:38.070Z,75.60
2023-02-23T06:17:05.781Z,75.97
2023-02-23T06:19:33.451Z,74.05
2023-02-23T06:22:00.703Z,75.93
2023-02-23T06:24:28.341Z,76.07
2023-02-23T06:26:55.986Z,75.57
2023-02-23T06:29:23.385Z,74.75
2023-02-23T06:31:50.704Z,73.40
2023-02-23T06:34:18.832Z,76.32
2023-02-23T06:36:47.302Z,72.70
2023-02-23T06:39:14.545Z,74.75
2023-02-23T06:41:42.078Z,75.00
2023-02-23T06:44:09.447Z,75.93
2023-02-23T06:46:37.993Z,73.95
2023-02-23T06:49:05.424Z,74.53
2023-02-23T06:51:33.086Z,74.78
2023-02-23T06:54:00.477Z,74.65
2023-02-23T06:56:27.764Z,71.28
2023-02-23T06:58:55.074Z,74.78
2023-02-23T07:01:22.334Z,75.13
2023-02-23T07:03:49.665Z,74.90
2023-02-23T07:06:16.954Z,73.45
2023-02-23T07:08:44.824Z,74.88
2023-02-23T07:11:16.081Z,75.70
2023-02-23T07:13:43.401Z,78.15
2023-02-23T07:16:11.131Z,77.13
2023-02-23T07:18:38.573Z,77.88
2023-02-23T07:21:06.252Z,77.05
2023-02-23T07:23:36.348Z,77.18
2023-02-23T07:26:03.668Z,77.07
2023-02-23T07:28:31.050Z,76.00
2023-02-23T07:30:59.262Z,76.10
2023-02-23T07:33:26.916Z,75.07
2023-02-23T07:35:54.205Z,76.38
2023-02-23T07:38:21.526Z,78.30
2023-02-23T07:40:50.751Z,75.53
2023-02-23T07:43:18.417Z,76.40
2023-02-23T07:45:46.679Z,75.85
2023-02-23T07:48:14.676Z,74.85
2023-02-23T07:50:42.693Z,77.80
2023-02-23T07:53:13.995Z,77.35
2023-02-23T07:55:41.315Z,73.93
2023-02-23T07:58:09.031Z,73.43
2023-02-23T08:00:38.862Z,72.80
2023-02-23T08:03:07.216Z,73.50
2023-02-23T08:05:34.455Z,73.78
2023-02-23T08:08:01.717Z,76.80
2023-02-23T08:10:28.985Z,75.53
2023-02-23T08:12:57.975Z,78.30
2023-02-23T08:15:25.419Z,77.13
2023-02-23T08:17:52.753Z,75.38
2023-02-23T08:20:20.158Z,77.88
2023-02-23T08:22:50.008Z,78.20
2023-02-23T08:25:18.144Z,81.07
2023-02-23T08:27:46.484Z,78.10
2023-02-23T08:30:14.635Z,79.05
2023-02-23T08:32:42.931Z,80.38
2023-02-23T08:35:10.659Z,79.63
2023-02-23T08:37:37.933Z,76.80
2023-02-23T08:40:07.708Z,77.72
2023-02-23T08:42:35.207Z,78.82
2023-02-23T08:45:02.674Z,78.95
2023-02-23T08:47:30.031Z,75.45
2023-02-23T08:49:57.334Z,77.65
2023-02-23T08:52:25.400Z,75.55
2023-02-23T08:54:52.701Z,78.03
2023-02-23T08:57:19.968Z,77.30
2023-02-23T08:59:50.234Z,78.70
2023-02-23T09:02:17.833Z,73.05
2023-02-23T09:04:45.223Z,75.95
2023-02-23T09:07:17.708Z,74.60
2023-02-23T09:09:45.019Z,75.18
2023-02-23T09:12:12.253Z,75.22
2023-02-23T09:14:40.428Z,74.30
2023-02-23T09:17:07.737Z,73.88
2023-02-23T09:19:35.038Z,74.78
2023-02-23T09:22:02.353Z,74.43
2023-02-23T09:24:29.628Z,72.85
2023-02-23T09:26:56.859Z,74.78
2023-02-23T09:29:24.477Z,73.28
2023-02-23T09:31:58.306Z,75.32
2023-02-23T09:34:26.214Z,73.30
2023-02-23T09:36:55.689Z,75.30
2023-02-23T09:39:36.937Z,74.05
2023-02-23T09:44:46.668Z,71.93
2023-02-23T09:47:30.587Z,72.40
2023-02-23T09:50:00.347Z,72.75
2023-02-23T09:52:36.712Z,74.13
2023-02-23T09:55:04.744Z,76.60
2023-02-23T09:57:43.731Z,75.25
2023-02-23T10:00:27.833Z,74.50
2023-02-23T10:03:39.870Z,75.05
2023-02-23T10:06:11.311Z,72.18
2023-02-23T10:08:41.428Z,75.25
2023-02-23T10:11:23.791Z,76.75
2023-02-23T10:14:09.968Z,76.57
2023-02-23T10:17:01.759Z,74.80
2023-02-23T10:19:53.355Z,75.75
2023-02-23T10:22:21.219Z,73.68
2023-02-23T10:24:56.861Z,74.45
2023-02-23T10:27:30.364Z,72.90
2023-02-23T10:30:02.015Z,73.63
2023-02-23T10:32:43.714Z,76.45
2023-02-23T10:35:16.835Z,76.15
2023-02-23T10:37:45.203Z,74.97
2023-02-23T10:40:23.394Z,74.68
2023-02-23T10:42:52.214Z,75.32
2023-02-23T10:45:24.721Z,77.43
2023-02-23T10:47:54.332Z,74.80
2023-02-23T10:50:22.965Z,74.13
2023-02-23T10:52:55.050Z,74.10
2023-02-23T11:00:56.889Z,69.88
2023-02-23T11:03:24.486Z,70.85
2023-02-23T11:05:53.658Z,75.18
2023-02-23T11:08:23.992Z,72.03
2023-02-23T11:10:59.293Z,72.38
2023-02-23T11:13:29.104Z,69.40
2023-02-23T11:16:17.032Z,71.65
2023-02-23T11:18:56.520Z,70.68
2023-02-23T11:21:33.808Z,68.32
2023-02-23T11:24:16.753Z,68.55
2023-02-23T11:26:45.963Z,71.90
2023-02-23T11:29:27.120Z,67.20
2023-02-23T11:31:58.396Z,70.35
2023-02-23T11:34:32.290Z,68.45
2023-02-23T11:37:20.128Z,71.13
2023-02-23T11:39:55.439Z,69.80
2023-02-23T11:42:25.469Z,70.30
2023-02-23T11:45:02.705Z,71.55
2023-02-23T11:47:31.913Z,70.00
2023-02-23T11:50:03.320Z,68.20
2023-02-23T11:52:31.347Z,69.03
2023-02-23T11:55:02.906Z,69.22
2023-02-23T11:57:35.088Z,66.25
2023-02-23T12:00:11.181Z,68.70
2023-02-23T12:03:06.786Z,68.78
2023-02-23T12:05:34.239Z,68.93
2023-02-23T12:08:17.341Z,69.40
2023-02-23T12:10:51.767Z,68.88
2023-02-23T12:13:32.730Z,68.10
2023-02-23T12:16:06.180Z,65.20
2023-02-23T12:18:47.269Z,66.95
2023-02-23T12:21:29.608Z,64.82
2023-02-23T12:24:18.045Z,65.95
2023-02-23T12:26:54.956Z,65.30
2023-02-23T12:30:13.505Z,64.47
2023-02-23T12:32:49.170Z,66.88
2023-02-23T12:35:24.305Z,66.40
2023-02-23T12:37:55.635Z,64.65
2023-02-23T12:40:30.103Z,66.63
2023-02-23T12:43:30.502Z,65.30
2023-02-23T12:46:15.983Z,64.63
2023-02-23T12:49:22.216Z,63.45
2023-02-23T12:51:53.281Z,61.20
2023-02-23T12:54:20.652Z,62.25
2023-02-23T12:56:54.568Z,62.45
2023-02-23T12:59:46.484Z,59.65
2023-02-23T13:02:36.942Z,59.95
2023-02-23T13:05:22.603Z,62.00
2023-02-23T13:08:01.919Z,59.72
2023-02-23T13:10:41.469Z,61.25
2023-02-23T13:13:43.796Z,61.65
2023-02-23T13:16:14.000Z,57.58
2023-02-23T13:18:59.563Z,58.42
2023-02-23T13:21:28.674Z,56.72
2023-02-23T13:24:01.339Z,58.20
2023-02-23T13:26:40.628Z,52.75
2023-02-23T13:29:23.077Z,50.72
2023-02-23T13:31:50.957Z,48.65
2023-02-23T13:34:27.854Z,48.10
2023-02-23T13:36:56.234Z,50.38
2023-02-23T13:39:55.651Z,50.30
2023-02-23T13:43:01.068Z,49.17
2023-02-23T13:45:56.329Z,50.80
2023-02-23T13:48:47.303Z,51.90
2023-02-23T13:51:39.675Z,49.35
2023-02-23T13:54:13.133Z,51.50
2023-02-23T13:56:48.522Z,51.55
2023-02-23T13:59:26.281Z,54.25
2023-02-23T14:01:56.953Z,53.30
2023-02-23T14:04:25.867Z,52.67
2023-02-23T14:07:03.776Z,56.25
2023-02-23T14:09:36.634Z,55.90
2023-02-23T14:12:19.288Z,58.67
2023-02-23T14:14:46.997Z,59.13
2023-02-23T14:17:14.138Z,56.80
2023-02-23T14:20:00.364Z,53.40
2023-02-23T14:22:30.065Z,53.38
2023-02-23T14:25:34.627Z,52.88
2023-02-23T14:28:21.885Z,53.28
2023-02-23T14:31:11.461Z,50.83
2023-02-23T14:33:41.729Z,50.13
2023-02-23T14:36:23.899Z,50.58
2023-02-23T14:41:36.653Z,48.80
2023-02-23T14:44:28.437Z,53.83
2023-02-23T14:47:17.711Z,54.03
2023-02-23T14:49:49.040Z,53.30
2023-02-23T14:52:29.777Z,51.33
2023-02-23T14:55:11.939Z,52.00
2023-02-23T14:57:42.708Z,51.70
2023-02-23T15:00:23.032Z,52.58
2023-02-23T15:03:12.835Z,50.70
2023-02-23T15:06:06.270Z,52.70
2023-02-23T15:08:38.596Z,51.67
2023-02-23T15:11:14.434Z,50.92
2023-02-23T15:13:50.347Z,50.95
2023-02-23T15:16:31.783Z,49.70
2023-02-23T15:19:03.078Z,49.40
2023-02-23T15:21:33.664Z,51.20
2023-02-23T15:24:11.581Z,50.55
2023-02-23T15:26:40.769Z,51.42
2023-02-23T15:29:10.798Z,50.10
2023-02-23T15:31:40.963Z,50.70
2023-02-23T15:34:11.849Z,50.17
2023-02-23T15:36:41.301Z,47.92
2023-02-23T15:39:17.382Z,46.53
2023-02-23T15:41:48.417Z,45.90
2023-02-23T15:44:27.532Z,46.72
2023-02-23T15:47:04.622Z,47.87
2023-02-23T15:49:35.911Z,47.22
2023-02-23T15:52:09.513Z,47.03
2023-02-23T15:54:39.014Z,47.65
2023-02-23T15:57:15.674Z,49.67
2023-02-23T15:59:49.296Z,48.03
2023-02-23T16:02:19.526Z,46.00
2023-02-23T16:04:52.751Z,46.38
2023-02-23T16:07:26.921Z,46.67
2023-02-23T16:10:20.859Z,47.03
2023-02-23T16:12:52.825Z,48.15
2023-02-23T16:15:23.042Z,46.38
2023-02-23T16:17:59.576Z,46.05
2023-02-23T16:20:26.786Z,46.45
2023-02-23T16:22:54.930Z,46.75
2023-02-23T16:25:26.690Z,46.90
2023-02-23T16:28:04.765Z,47.28
2023-02-23T16:30:32.255Z,47.47
2023-02-23T16:33:29.774Z,47.08
2023-02-23T16:36:15.356Z,45.30
2023-02-23T16:38:57.828Z,45.92
2023-02-23T16:41:27.890Z,46.72
2023-02-23T16:43:57.958Z,47.05
2023-02-23T16:46:30.427Z,46.63
2023-02-23T16:49:05.210Z,48.13
2023-02-23T16:51:34.667Z,47.33
2023-02-23T16:54:04.053Z,48.65
2023-02-23T16:56:31.943Z,48.95
2023-02-23T16:59:02.733Z,47.55
2023-02-23T17:01:30.086Z,48.80
2023-02-23T17:03:59.091Z,50.45
2023-02-23T17:06:26.402Z,49.47
2023-02-23T17:08:58.491Z,48.60
2023-02-23T17:11:26.895Z,50.00
2023-02-23T17:13:54.207Z,51.10
2023-02-23T17:16:21.772Z,48.88
2023-02-23T17:18:49.370Z,50.38
2023-02-23T17:21:23.515Z,49.65
2023-02-23T17:23:52.556Z,50.35
2023-02-23T17:26:24.705Z,48.83
2023-02-23T17:28:53.866Z,48.05
2023-02-23T17:31:23.556Z,48.65
2023-02-23T17:33:53.683Z,49.90
2023-02-23T17:36:21.296Z,48.58
2023-02-23T17:38:48.679Z,48.67
2023-02-23T17:41:18.541Z,50.60
2023-02-23T17:43:46.038Z,50.05
2023-02-23T17:46:13.825Z,51.78
2023-02-23T17:48:44.598Z,50.40
2023-02-23T17:51:13.229Z,49.95
2023-02-23T17:53:40.693Z,51.13
2023-02-23T17:56:09.396Z,51.33
2023-02-23T17:58:38.054Z,50.90
2023-02-23T18:01:07.145Z,53.10
2023-02-23T18:03:37.330Z,51.92
2023-02-23T18:06:06.359Z,51.88
2023-02-23T18:08:34.432Z,53.80
2023-02-23T18:11:02.482Z,53.05
2023-02-23T18:13:31.213Z,53.45
2023-02-23T18:16:04.184Z,52.65
2023-02-23T18:18:32.198Z,53.03
2023-02-23T18:21:00.564Z,51.67
2023-02-23T18:23:32.447Z,52.72
2023-02-23T18:26:09.094Z,51.63
2023-02-23T18:28:37.496Z,52.17
2023-02-23T18:31:05.306Z,51.53
2023-02-23T18:33:35.917Z,51.83
2023-02-23T18:36:04.187Z,52.17
2023-02-23T18:38:31.478Z,53.45
2023-02-23T18:40:58.822Z,61.65
2023-02-23T18:43:27.353Z,61.13
2023-02-23T18:45:56.047Z,63.00
2023-02-23T18:48:23.549Z,61.60
2023-02-23T18:50:56.482Z,60.53
2023-02-23T18:53:23.833Z,61.50
2023-02-23T18:55:51.220Z,60.85
2023-02-23T18:58:19.785Z,59.50
2023-02-23T19:00:47.673Z,59.17
2023-02-23T19:03:15.009Z,60.40
2023-02-23T19:05:53.051Z,61.65
2023-02-23T19:08:20.890Z,61.45
2023-02-23T19:10:49.625Z,63.78
2023-02-23T19:13:22.191Z,62.10
2023-02-23T19:15:50.109Z,59.63
2023-02-23T19:18:17.429Z,61.65
2023-02-23T19:20:44.808Z,59.15
2023-02-23T19:23:13.187Z,59.22
2023-02-23T19:25:40.464Z,58.47
2023-02-23T19:28:10.561Z,55.88
2023-02-23T19:30:39.986Z,58.20
2023-02-23T19:33:08.206Z,57.03
2023-02-23T19:35:39.413Z,59.90
2023-02-23T19:38:11.044Z,57.00
2023-02-23T19:40:42.604Z,58.10
2023-02-23T19:43:11.821Z,60.10
2023-02-23T19:45:43.208Z,57.90
2023-02-23T19:48:10.611Z,59.22
2023-02-23T19:50:37.917Z,60.25
2023-02-23T19:53:05.180Z,62.58
2023-02-23T19:55:32.542Z,62.30
2023-02-23T19:57:59.786Z,63.90
2023-02-23T20:00:27.017Z,60.45
2023-02-23T20:02:56.981Z,59.60
2023-02-23T20:05:25.575Z,61.22
2023-02-23T20:07:53.068Z,60.55
2023-02-23T20:10:25.668Z,61.88
2023-02-23T20:12:53.416Z,61.08
2023-02-23T20:15:23.894Z,63.03
2023-02-23T20:17:51.616Z,64.10
2023-02-23T20:20:19.704Z,64.72
2023-02-23T20:22:52.113Z,66.70
2023-02-23T20:25:21.301Z,66.63
2023-02-23T20:27:51.219Z,66.80
2023-02-23T20:30:19.129Z,67.28
2023-02-23T20:32:47.993Z,68.65
2023-02-23T20:35:18.409Z,66.28
2023-02-23T20:37:45.683Z,66.90
2023-02-23T20:40:17.897Z,69.50
2023-02-23T20:42:47.897Z,69.10
2023-02-23T20:45:21.168Z,68.90
2023-02-23T20:47:54.201Z,67.38
2023-02-23T20:50:25.450Z,67.75
2023-02-23T20:52:53.459Z,66.00
2023-02-23T20:55:23.835Z,67.85
2023-02-23T20:57:52.276Z,67.55
2023-02-23T21:00:29.997Z,66.75
2023-02-23T21:02:58.744Z,67.80
2023-02-23T21:05:28.529Z,67.18
2023-02-23T21:08:04.131Z,68.25
2023-02-23T21:10:39.690Z,69.95
2023-02-23T21:13:10.715Z,69.35
2023-02-23T21:15:40.162Z,67.55
2023-02-23T21:18:08.255Z,65.22
2023-02-23T21:20:38.028Z,66.50
2023-02-23T21:23:05.511Z,67.05
2023-02-23T21:25:32.857Z,69.65
2023-02-23T21:28:02.768Z,69.75
2023-02-23T21:30:30.124Z,64.38
2023-02-23T21:32:57.861Z,66.68
2023-02-23T21:35:25.244Z,64.28
2023-02-23T21:37:52.732Z,64.22
2023-02-23T21:40:21.281Z,65.25
2023-02-23T21:42:50.237Z,65.40
2023-02-23T21:45:18.653Z,64.60
2023-02-23T21:47:47.156Z,65.00
2023-02-23T21:50:17.649Z,62.47
2023-02-23T21:52:48.656Z,59.65
2023-02-23T21:55:24.449Z,61.77
2023-02-23T21:57:52.243Z,61.33
2023-02-23T22:00:20.959Z,61.65
2023-02-23T22:02:49.419Z,62.97
2023-02-23T22:05:18.870Z,60.22
2023-02-23T22:07:51.765Z,61.38
2023-02-23T22:10:21.639Z,61.25
2023-02-23T22:12:50.340Z,60.10
2023-02-23T22:15:17.649Z,61.92
2023-02-23T22:17:45.038Z,59.47
2023-02-23T22:20:15.771Z,60.03
2023-02-23T22:22:43.277Z,61.10
2023-02-23T22:25:13.285Z,61.95
2023-02-23T22:27:42.744Z,62.05
2023-02-23T22:30:15.041Z,60.45
2023-02-23T22:32:43.596Z,62.08
2023-02-23T22:35:11.109Z,61.20
2023-02-23T22:37:39.059Z,62.38
2023-02-23T22:40:16.700Z,62.78
2023-02-23T22:42:48.380Z,62.15
2023-02-23T22:45:16.393Z,59.80
2023-02-23T22:47:43.706Z,60.30
2023-02-23T22:50:14.011Z,61.88
2023-02-23T22:52:43.156Z,60.45
2023-02-23T22:55:11.212Z,61.28
2023-02-23T22:57:39.968Z,59.55
2023-02-23T23:00:15.151Z,60.38
2023-02-23T23:02:42.499Z,59.83
2023-02-23T23:05:10.046Z,58.58
2023-02-23T23:07:38.765Z,59.92
2023-02-23T23:10:09.479Z,58.08
2023-02-23T23:12:36.985Z,59.03
2023-02-23T23:15:04.470Z,58.75
2023-02-23T23:17:32.997Z,59.13
2023-02-23T23:20:00.414Z,60.05
2023-02-23T23:22:28.135Z,59.22
2023-02-23T23:24:57.070Z,58.75
2023-02-23T23:27:24.843Z,59.67
2023-02-23T23:29:53.297Z,58.65
2023-02-23T23:32:28.512Z,58.55
2023-02-23T23:34:58.505Z,59.17
2023-02-23T23:37:29.388Z,58.88
2023-02-23T23:40:02.069Z,58.63
2023-02-23T23:42:32.018Z,57.25
2023-02-23T23:44:59.189Z,57.83
2023-02-23T23:47:26.811Z,57.10
2023-02-23T23:49:54.671Z,56.20
2023-02-23T23:52:21.864Z,58.58
2023-02-23T23:54:49.277Z,56.95
2023-02-23T23:57:18.248Z,59.05
2023-02-23T23:59:45.780Z,56.70
